Ro Fjord — LFEI — position and weather

sailwx.info

Track history (hours):
 
Tides and Currents Weather Stations Pressure Air Temp Water Temp Dewpoint Dewpoint Depression Visibility Wind Speed Wind Dir Waves Ship Positions

Ro Fjord

Last reported at 2016-Jun-22 18:30 UTC. Time now 2016-Jun-28 20:43 UTC.
Position N 61°40' E 004°58'.

Length 72 m; draft 7 m.

Type: Cargo ship. MMSI: 257430000.

Date/timePositionNaut miles runAvg speedWind from/ knotsBaromVisibWave heightAir tempDewpointWater temp
2016-Jun-22 18:30N 61°40' E 004°58'11 9.3
2016-Jun-22 17:18N 61°49' E 005°12'  
2016-Jun-19 17:33N 61°53' E 005°10'1010.2
2016-Jun-19 16:33N 62°03' E 005°08'  
2016-Jun-16 20:21N 62°24' E 005°50'8 8.8
2016-Jun-16 19:28N 62°24' E 006°06'6 1.6
2016-Jun-16 15:33N 62°24' E 006°20'12 9.9
2016-Jun-16 14:23N 62°26' E 005°55'8 9.4
2016-Jun-16 13:34N 62°20' E 005°45'3 2.5
2016-Jun-16 12:33N 62°19' E 005°39'0 0.0
2016-Jun-16 11:33N 62°19' E 005°39'0 0.0
2016-Jun-16 10:33N 62°19' E 005°39'0 0.0
2016-Jun-16 09:34N 62°19' E 005°39'0 0.0
2016-Jun-16 08:33N 62°19' E 005°39'0 0.0
2016-Jun-16 07:33N 62°19' E 005°39'0 0.0
2016-Jun-16 06:34N 62°19' E 005°39'0 0.0
2016-Jun-16 05:34N 62°19' E 005°39'0 0.0
2016-Jun-16 04:33N 62°19' E 005°39'0 0.0
2016-Jun-16 03:34N 62°19' E 005°39'0 0.0
2016-Jun-16 02:34N 62°19' E 005°39'8 8.0
2016-Jun-16 01:34N 62°25' E 005°51'17 2.7
2016-Jun-15 19:33N 62°25' E 006°27'0 0.2
2016-Jun-15 17:04N 62°25' E 006°28'0 0.5
2016-Jun-15 16:33N 62°25' E 006°27'2 2.0
2016-Jun-15 15:34N 62°24' E 006°23'9 4.4
2016-Jun-15 13:33N 62°24' E 006°04'5 5.4
2016-Jun-15 12:33N 62°25' E 005°53'9 1.0
2016-Jun-15 03:32N 62°19' E 005°39'0 0.0
2016-Jun-15 02:32N 62°19' E 005°39'  
Track history (hours):
 
Tides and Currents Weather Stations Pressure Air Temp Water Temp Dewpoint Dewpoint Depression Visibility Wind Speed Wind Dir Waves Ship Positions

Ro Fjord

Last reported at 2016-Jun-22 18:30 UTC. Time now 2016-Jun-28 20:43 UTC.
Position N 61°40' E 004°58'.

Length 72 m; draft 7 m.

Type: Cargo ship. MMSI: 257430000.

Date/timePositionNaut miles runAvg speedWind from/ knotsBaromVisibWave heightAir tempDewpointWater temp
2016-Jun-22 18:30N 61°40' E 004°58'11 9.3
2016-Jun-22 17:18N 61°49' E 005°12'  
2016-Jun-19 17:33N 61°53' E 005°10'1010.2
2016-Jun-19 16:33N 62°03' E 005°08'  
2016-Jun-16 20:21N 62°24' E 005°50'8 8.8
2016-Jun-16 19:28N 62°24' E 006°06'6 1.6
2016-Jun-16 15:33N 62°24' E 006°20'12 9.9
2016-Jun-16 14:23N 62°26' E 005°55'8 9.4
2016-Jun-16 13:34N 62°20' E 005°45'3 2.5
2016-Jun-16 12:33N 62°19' E 005°39'0 0.0
2016-Jun-16 11:33N 62°19' E 005°39'0 0.0
2016-Jun-16 10:33N 62°19' E 005°39'0 0.0
2016-Jun-16 09:34N 62°19' E 005°39'0 0.0
2016-Jun-16 08:33N 62°19' E 005°39'0 0.0
2016-Jun-16 07:33N 62°19' E 005°39'0 0.0
2016-Jun-16 06:34N 62°19' E 005°39'0 0.0
2016-Jun-16 05:34N 62°19' E 005°39'0 0.0
2016-Jun-16 04:33N 62°19' E 005°39'0 0.0
2016-Jun-16 03:34N 62°19' E 005°39'0 0.0
2016-Jun-16 02:34N 62°19' E 005°39'8 8.0
2016-Jun-16 01:34N 62°25' E 005°51'17 2.7
2016-Jun-15 19:33N 62°25' E 006°27'0 0.2
2016-Jun-15 17:04N 62°25' E 006°28'0 0.5
2016-Jun-15 16:33N 62°25' E 006°27'2 2.0
2016-Jun-15 15:34N 62°24' E 006°23'9 4.4
2016-Jun-15 13:33N 62°24' E 006°04'5 5.4
2016-Jun-15 12:33N 62°25' E 005°53'9 1.0
2016-Jun-15 03:32N 62°19' E 005°39'0 0.0
2016-Jun-15 02:32N 62°19' E 005°39'  

Dump ship's entire track history